Time;durP1;ratioP1;P1;durP2;ratioP2;P2;SDS_P1;SDS_P2;PMS_P1;PMS_P2;Temp;Humidity;BMP_temperature;BMP_pressure;BME280_temperature;BME280_humidity;BME280_pressure;Samples;Min_cycle;Max_cycle;Signal;HPM_P1;HPM_P2
2022/08/14 00:02:10;;;;;;;5.45;4.63;;;21.30;99.90;;;;;;6064725;23;20447;-79
2022/08/14 00:04:36;;;;;;;4.15;3.83;;;21.30;99.90;;;;;;6064337;23;20018;-80
2022/08/14 00:07:03;;;;;;;4.70;3.90;;;21.20;99.90;;;;;;6086498;23;20105;-81
2022/08/14 00:09:29;;;;;;;6.88;4.00;;;21.20;99.90;;;;;;6088985;23;20022;-79
2022/08/14 00:11:55;;;;;;;5.50;4.80;;;21.20;99.90;;;;;;6089734;23;20641;-79
2022/08/14 00:14:21;;;;;;;4.45;3.95;;;21.20;99.90;;;;;;6088551;23;20448;-80
2022/08/14 00:16:47;;;;;;;5.97;4.25;;;21.20;99.90;;;;;;6089080;23;20022;-79
2022/08/14 00:19:13;;;;;;;6.65;4.53;;;21.20;99.90;;;;;;6089647;23;20077;-80
2022/08/14 00:21:38;;;;;;;5.60;4.45;;;21.20;99.90;;;;;;6089703;23;20527;-79
2022/08/14 00:24:04;;;;;;;6.47;4.35;;;21.10;99.90;;;;;;6088873;23;20126;-79
2022/08/14 00:26:29;;;;;;;4.45;4.05;;;21.10;99.90;;;;;;6089755;23;20400;-79
2022/08/14 00:28:55;;;;;;;4.78;4.38;;;21.00;99.90;;;;;;6089861;23;20348;-79
2022/08/14 00:31:22;;;;;;;5.40;4.30;;;21.00;99.90;;;;;;6089622;23;20090;-79
2022/08/14 00:33:47;;;;;;;5.63;4.90;;;21.00;99.90;;;;;;6087376;23;20026;-81
2022/08/14 00:36:13;;;;;;;12.75;4.50;;;21.00;99.90;;;;;;6086099;23;20475;-80
2022/08/14 00:38:39;;;;;;;8.50;5.05;;;21.10;99.90;;;;;;6088688;23;20101;-82
2022/08/14 00:41:07;;;;;;;5.63;4.68;;;21.10;99.90;;;;;;6088649;23;20196;-80
2022/08/14 00:43:34;;;;;;;6.47;4.35;;;21.10;99.90;;;;;;6088165;23;20042;-81
2022/08/14 00:46:08;;;;;;;5.38;4.97;;;21.10;99.90;;;;;;6061837;23;20570;-81
2022/08/14 00:48:35;;;;;;;6.75;4.53;;;21.20;99.90;;;;;;6089593;23;20057;-80
2022/08/14 00:51:02;;;;;;;5.28;4.72;;;21.10;99.90;;;;;;6088656;23;20021;-80
2022/08/14 00:53:28;;;;;;;4.93;4.45;;;21.00;99.90;;;;;;6089311;23;20019;-80
2022/08/14 00:55:55;;;;;;;10.68;4.45;;;21.00;99.90;;;;;;6086457;23;20030;-80
2022/08/14 00:58:30;;;;;;;9.10;4.63;;;21.00;99.90;;;;;;6089016;23;20366;-79
2022/08/14 01:01:00;;;;;;;4.80;4.28;;;21.00;99.90;;;;;;6063758;23;20022;-79
2022/08/14 01:03:28;;;;;;;5.63;4.38;;;21.00;99.90;;;;;;6087598;23;20058;-79
2022/08/14 01:05:55;;;;;;;5.50;4.45;;;21.00;99.90;;;;;;6087074;23;20333;-81
2022/08/14 01:08:27;;;;;;;5.93;4.85;;;20.90;99.90;;;;;;6088331;23;20018;-79
2022/08/14 01:10:54;;;;;;;6.88;5.18;;;20.90;99.90;;;;;;6087900;23;20014;-80
2022/08/14 01:13:33;;;;;;;9.43;4.38;;;20.90;99.90;;;;;;6088580;23;20018;-79
2022/08/14 01:16:00;;;;;;;5.93;4.78;;;20.80;99.90;;;;;;6087938;23;20602;-81
2022/08/14 01:21:15;;;;;;;4.85;4.50;;;20.70;99.90;;;;;;6088361;23;20018;-79
2022/08/14 01:23:49;;;;;;;9.10;5.45;;;20.80;99.90;;;;;;6087636;23;20097;-80
2022/08/14 01:26:19;;;;;;;4.53;3.97;;;20.60;99.90;;;;;;6087008;23;20049;-79
2022/08/14 01:28:47;;;;;;;4.97;4.47;;;20.60;99.90;;;;;;6090630;23;20598;-79
2022/08/14 01:31:15;;;;;;;7.35;4.97;;;20.60;99.90;;;;;;6088992;23;20034;-79
2022/08/14 01:33:45;;;;;;;8.52;4.60;;;20.60;99.90;;;;;;6087796;23;20125;-79
2022/08/14 01:36:12;;;;;;;4.82;4.50;;;20.60;99.90;;;;;;6086329;23;20022;-79
2022/08/14 01:38:41;;;;;;;8.65;4.97;;;20.50;99.90;;;;;;6088777;23;20866;-79
2022/08/14 01:41:12;;;;;;;7.65;5.03;;;20.50;99.90;;;;;;6088074;23;20093;-79
2022/08/14 01:43:51;;;;;;;15.07;5.30;;;20.40;99.90;;;;;;6088318;23;20015;-80
2022/08/14 01:46:20;;;;;;;5.95;5.07;;;20.40;99.90;;;;;;6086064;23;20046;-79
2022/08/14 01:48:47;;;;;;;6.50;4.97;;;20.30;99.90;;;;;;6088122;23;20077;-80
2022/08/14 01:51:15;;;;;;;4.93;4.53;;;20.30;99.90;;;;;;6089064;23;20022;-79
2022/08/14 01:53:45;;;;;;;7.13;5.00;;;20.30;99.90;;;;;;6087961;23;20126;-80
2022/08/14 01:56:11;;;;;;;6.13;5.03;;;20.30;99.90;;;;;;6063614;23;20739;-80
2022/08/14 01:58:36;;;;;;;6.22;4.90;;;20.30;99.90;;;;;;6086037;23;20014;-80
2022/08/14 02:01:03;;;;;;;6.13;5.18;;;20.20;99.90;;;;;;6088310;23;20014;-80
2022/08/14 02:03:34;;;;;;;7.18;4.72;;;20.20;99.90;;;;;;6087519;23;20050;-80
2022/08/14 02:06:01;;;;;;;7.55;5.13;;;20.20;99.90;;;;;;6086831;23;20086;-79
2022/08/14 02:08:29;;;;;;;6.63;4.53;;;20.10;99.90;;;;;;6061892;23;20014;-80
2022/08/14 02:13:42;;;;;;;8.27;6.10;;;20.00;99.90;;;;;;6088306;23;20045;-80
2022/08/14 02:16:09;;;;;;;6.97;4.35;;;19.90;99.90;;;;;;6088548;23;20014;-79
2022/08/14 02:18:35;;;;;;;8.45;5.75;;;19.90;99.90;;;;;;6087585;23;20014;-80
2022/08/14 02:21:03;;;;;;;6.00;5.47;;;19.80;99.90;;;;;;6088048;23;20590;-79
2022/08/14 02:23:29;;;;;;;5.85;4.88;;;19.80;99.90;;;;;;6087230;23;20023;-79
2022/08/14 02:25:55;;;;;;;5.45;4.95;;;19.80;99.90;;;;;;6087780;23;20026;-79
2022/08/14 02:28:22;;;;;;;10.10;5.68;;;19.80;99.90;;;;;;6086825;23;20388;-79
2022/08/14 02:30:48;;;;;;;8.30;5.95;;;19.80;99.90;;;;;;6063427;23;20534;-79
2022/08/14 02:33:13;;;;;;;5.35;4.95;;;20.20;99.90;;;;;;6092821;23;20021;-80
2022/08/14 02:35:41;;;;;;;6.53;5.28;;;19.80;99.90;;;;;;6091443;23;20025;-79
2022/08/14 02:38:07;;;;;;;7.10;5.10;;;19.80;99.90;;;;;;6093358;23;20024;-80
2022/08/14 02:40:33;;;;;;;9.43;5.43;;;19.80;99.90;;;;;;6066293;23;20018;-80
2022/08/14 02:42:58;;;;;;;8.60;5.20;;;19.80;99.90;;;;;;6091642;23;20082;-80
2022/08/14 02:45:30;;;;;;;6.03;5.07;;;19.80;99.90;;;;;;6092976;23;20092;-80
2022/08/14 02:47:56;;;;;;;7.85;5.32;;;19.80;99.90;;;;;;6092195;23;20025;-80
2022/08/14 02:50:21;;;;;;;6.65;5.30;;;19.80;99.90;;;;;;6089849;23;20010;-81
2022/08/14 02:52:47;;;;;;;5.75;5.25;;;19.80;99.90;;;;;;6092795;23;20099;-80
2022/08/14 02:55:12;;;;;;;5.90;5.25;;;19.80;99.90;;;;;;6092775;23;20026;-80
2022/08/14 02:57:39;;;;;;;5.75;5.25;;;19.70;99.90;;;;;;6091521;23;20125;-80
2022/08/14 03:00:05;;;;;;;5.97;5.15;;;19.70;99.90;;;;;;6091318;23;20022;-80
2022/08/14 03:02:32;;;;;;;7.32;5.63;;;19.70;99.90;;;;;;6095329;23;20037;-80
2022/08/14 03:04:58;;;;;;;5.88;5.38;;;19.70;99.90;;;;;;6093818;23;20038;-80
2022/08/14 03:07:24;;;;;;;5.75;5.05;;;19.70;99.90;;;;;;6095702;23;20022;-81
2022/08/14 03:09:50;;;;;;;6.20;5.60;;;19.60;99.90;;;;;;6094491;23;20069;-80
2022/08/14 03:12:15;;;;;;;8.45;5.70;;;19.60;99.90;;;;;;6095043;23;20026;-80
2022/08/14 03:14:48;;;;;;;7.18;5.78;;;19.60;99.90;;;;;;6094193;23;20029;-80
2022/08/14 03:17:14;;;;;;;6.05;5.55;;;19.60;99.90;;;;;;6094855;23;20018;-80
2022/08/14 03:19:40;;;;;;;6.90;5.20;;;19.60;99.90;;;;;;6094140;23;20452;-80
2022/08/14 03:22:06;;;;;;;6.57;5.97;;;19.60;99.90;;;;;;6093811;23;20042;-80
2022/08/14 03:24:32;;;;;;;7.57;5.93;;;19.60;99.90;;;;;;6095195;23;20022;-80
2022/08/14 03:26:57;;;;;;;8.65;5.75;;;19.60;99.90;;;;;;6094755;23;20447;-80
2022/08/14 03:29:24;;;;;;;6.95;6.28;;;19.60;99.90;;;;;;6096733;23;20025;-80
2022/08/14 03:31:50;;;;;;;5.93;5.43;;;19.60;99.90;;;;;;6092314;23;20022;-80
2022/08/14 03:34:17;;;;;;;7.18;5.80;;;19.50;99.90;;;;;;6097063;23;20447;-78
2022/08/14 03:36:44;;;;;;;10.07;7.00;;;19.50;99.90;;;;;;6100680;23;20022;-80
2022/08/14 03:39:10;;;;;;;6.93;6.28;;;19.60;99.90;;;;;;6100520;23;20646;-81
2022/08/14 03:41:36;;;;;;;7.07;6.05;;;19.50;99.90;;;;;;6098321;23;20607;-80
2022/08/14 03:44:05;;;;;;;7.68;6.28;;;19.50;99.90;;;;;;6096551;23;20053;-80
2022/08/14 03:46:37;;;;;;;8.35;6.13;;;19.50;99.90;;;;;;6097379;23;20014;-79
2022/08/14 03:49:04;;;;;;;7.32;6.72;;;19.50;99.90;;;;;;6097715;23;20070;-80
2022/08/14 03:51:31;;;;;;;8.50;7.10;;;19.50;99.90;;;;;;6095519;23;20029;-81
2022/08/14 03:53:59;;;;;;;7.75;6.47;;;19.50;99.90;;;;;;6096237;23;20025;-79
2022/08/14 03:56:26;;;;;;;7.55;6.30;;;19.50;99.90;;;;;;6073419;23;20093;-80
2022/08/14 03:58:55;;;;;;;7.20;6.50;;;19.50;99.90;;;;;;6098408;23;20018;-78
2022/08/14 04:01:23;;;;;;;8.35;6.95;;;19.50;99.90;;;;;;6095700;23;20073;-81
2022/08/14 04:03:50;;;;;;;7.53;6.82;;;19.50;99.90;;;;;;6096973;23;20048;-81
2022/08/14 04:06:19;;;;;;;11.20;6.68;;;19.50;99.90;;;;;;6072515;23;20023;-81
2022/08/14 04:08:45;;;;;;;9.90;7.60;;;19.50;99.90;;;;;;6095448;23;20019;-80
2022/08/14 04:11:11;;;;;;;7.70;7.05;;;19.50;99.90;;;;;;6072100;23;20038;-79
2022/08/14 04:13:39;;;;;;;8.52;6.93;;;19.50;99.90;;;;;;6091915;23;20455;-80
2022/08/14 04:16:16;;;;;;;6.95;6.43;;;19.50;99.90;;;;;;6098301;23;20046;-81
2022/08/14 04:18:54;;;;;;;7.63;6.93;;;19.50;99.90;;;;;;6097696;23;20097;-81
2022/08/14 04:21:23;;;;;;;8.40;6.68;;;19.50;99.90;;;;;;6097358;23;20101;-79
2022/08/14 04:23:51;;;;;;;8.40;6.78;;;19.50;99.90;;;;;;6072272;23;20042;-80
2022/08/14 04:26:18;;;;;;;9.15;6.80;;;19.50;99.90;;;;;;6096228;23;20064;-79
2022/08/14 04:28:44;;;;;;;8.23;7.03;;;19.50;99.90;;;;;;6096807;23;20019;-81
2022/08/14 04:31:10;;;;;;;8.00;7.20;;;19.40;99.90;;;;;;6071926;23;20519;-80
2022/08/14 04:33:36;;;;;;;8.85;7.35;;;19.50;99.90;;;;;;6095582;23;20640;-79
2022/08/14 04:36:02;;;;;;;9.40;7.47;;;19.50;99.90;;;;;;6095282;23;20045;-81
2022/08/14 04:43:57;;;;;;;8.23;6.78;;;19.50;99.90;;;;;;6070235;23;20034;-81
2022/08/14 04:46:23;;;;;;;10.20;7.32;;;19.50;99.90;;;;;;6046177;23;20022;-80
2022/08/14 04:48:49;;;;;;;11.93;8.18;;;19.60;99.90;;;;;;6095830;23;20022;-81
2022/08/14 04:51:17;;;;;;;17.98;8.02;;;19.60;99.90;;;;;;6069294;23;20456;-80
2022/08/14 04:53:49;;;;;;;11.82;7.95;;;19.70;99.90;;;;;;6095173;23;20061;-81
2022/08/14 04:56:21;;;;;;;8.35;7.50;;;19.70;99.90;;;;;;6093883;23;20503;-80
2022/08/14 04:58:48;;;;;;;8.82;7.55;;;19.80;99.90;;;;;;6047054;23;20038;-81
2022/08/14 05:01:15;;;;;;;13.23;7.95;;;19.80;99.90;;;;;;6048758;23;20034;-80
2022/08/14 05:03:41;;;;;;;9.18;7.88;;;19.80;99.90;;;;;;6072901;23;20010;-80
2022/08/14 05:06:09;;;;;;;9.60;7.35;;;19.90;99.90;;;;;;6097702;23;20148;-80
2022/08/14 05:08:36;;;;;;;8.25;7.55;;;20.00;99.90;;;;;;6067907;23;20011;-81
2022/08/14 05:11:05;;;;;;;8.90;8.00;;;20.10;99.90;;;;;;6097856;23;20093;-79
2022/08/14 05:13:32;;;;;;;8.65;7.88;;;20.10;99.90;;;;;;6072866;23;20010;-81
2022/08/14 05:15:59;;;;;;;12.23;8.38;;;20.40;99.90;;;;;;6072079;23;20018;-81
2022/08/14 05:18:29;;;;;;;11.65;7.88;;;20.90;99.90;;;;;;6047471;23;20103;-80
2022/08/14 05:20:55;;;;;;;7.32;6.63;;;21.70;99.90;;;;;;6048003;23;20454;-81
2022/08/14 05:23:25;;;;;;;9.93;6.68;;;22.80;99.90;;;;;;6096423;23;20049;-81
2022/08/14 05:25:58;;;;;;;8.32;6.82;;;23.90;99.90;;;;;;6096215;23;20546;-81
2022/08/14 05:28:25;;;;;;;8.30;6.65;;;24.80;99.90;;;;;;6049053;23;20021;-81
2022/08/14 05:30:57;;;;;;;9.68;6.25;;;25.70;99.90;;;;;;6096275;23;20019;-80
2022/08/14 05:33:25;;;;;;;10.15;6.72;;;26.40;99.90;;;;;;6074691;23;20018;-79
2022/08/14 05:35:52;;;;;;;6.70;6.00;;;27.10;99.90;;;;;;6095712;23;20396;-81
2022/08/14 05:38:20;;;;;;;6.28;5.63;;;27.70;99.40;;;;;;6099523;23;20010;-81
2022/08/14 05:40:48;;;;;;;7.95;5.90;;;28.20;98.30;;;;;;6095347;23;20077;-81
2022/08/14 05:43:14;;;;;;;12.00;5.95;;;28.70;97.30;;;;;;6073159;23;20030;-81
2022/08/14 05:45:41;;;;;;;7.05;5.97;;;29.10;96.60;;;;;;6096171;23;20078;-78
2022/08/14 05:48:11;;;;;;;6.50;5.05;;;29.60;96.00;;;;;;6098609;23;20025;-79
2022/08/14 05:50:37;;;;;;;6.38;5.70;;;30.10;95.30;;;;;;6095747;23;20092;-81
2022/08/14 05:53:03;;;;;;;6.20;5.60;;;30.50;94.40;;;;;;6097803;23;20502;-82
2022/08/14 05:55:29;;;;;;;5.72;5.22;;;31.00;94.00;;;;;;6096728;23;20061;-82
2022/08/14 05:58:01;;;;;;;8.13;5.32;;;31.50;93.30;;;;;;6097545;23;20530;-80
2022/08/14 06:00:32;;;;;;;7.05;4.68;;;31.90;92.30;;;;;;6097463;23;20014;-82
2022/08/14 06:02:59;;;;;;;7.43;5.22;;;32.00;91.60;;;;;;6093077;23;20018;-81
2022/08/14 06:05:26;;;;;;;7.68;4.50;;;32.60;91.30;;;;;;6071702;23;20022;-82
2022/08/14 06:07:52;;;;;;;5.18;4.68;;;32.70;90.70;;;;;;6073770;23;20324;-82
2022/08/14 06:10:18;;;;;;;9.10;5.15;;;33.10;90.20;;;;;;6094756;23;20022;-80
2022/08/14 06:12:44;;;;;;;5.18;4.68;;;33.70;90.00;;;;;;6095316;23;20065;-82
2022/08/14 06:15:10;;;;;;;5.28;4.78;;;33.70;87.80;;;;;;6095734;23;20119;-82
2022/08/14 06:17:49;;;;;;;6.85;5.13;;;33.60;87.40;;;;;;6099189;23;20022;-82
2022/08/14 06:20:15;;;;;;;8.82;5.53;;;33.80;86.30;;;;;;6094713;23;20046;-78
2022/08/14 06:22:42;;;;;;;8.30;5.03;;;34.00;85.60;;;;;;6093710;23;20212;-79
2022/08/14 06:25:08;;;;;;;6.13;4.70;;;34.00;84.50;;;;;;6094854;23;20026;-80
2022/08/14 06:27:58;;;;;;;4.78;4.38;;;33.90;84.40;;;;;;6097083;23;20022;-80
2022/08/14 06:30:26;;;;;;;11.05;4.32;;;34.40;84.50;;;;;;6050410;23;20022;-77
2022/08/14 06:32:52;;;;;;;6.97;4.40;;;34.00;83.90;;;;;;6091712;23;20462;-79
2022/08/14 06:35:19;;;;;;;5.20;4.70;;;33.50;83.50;;;;;;6070483;23;20022;-79
2022/08/14 06:37:50;;;;;;;6.07;4.38;;;32.50;83.20;;;;;;6070899;23;20022;-80
2022/08/14 06:40:25;;;;;;;7.28;4.78;;;31.80;85.00;;;;;;6091730;23;20010;-80
2022/08/14 06:42:51;;;;;;;;;;;31.20;85.90;;;;;;6069637;23;20022;-80
2022/08/14 06:45:17;;;;;;;8.05;5.57;;;30.60;87.10;;;;;;6071498;23;19924;-79
2022/08/14 06:48:26;;;;;;;7.22;4.88;;;30.20;87.80;;;;;;6071425;23;20034;-80
2022/08/14 06:51:23;;;;;;;4.40;3.83;;;29.90;89.30;;;;;;5944063;24;20020;-80
2022/08/14 06:53:52;;;;;;;9.88;5.07;;;29.80;90.00;;;;;;6013818;23;20025;-79
2022/08/14 06:56:20;;;;;;;5.57;4.25;;;30.10;90.20;;;;;;6046572;23;20014;-80
2022/08/14 06:58:45;;;;;;;8.43;5.03;;;29.80;90.00;;;;;;6045290;23;20465;-79
2022/08/14 07:08:03;;;;;;;9.48;3.80;;;29.50;90.50;;;;;;6006708;23;20023;-80
2022/08/14 07:14:09;;;;;;;6.90;3.97;;;29.80;90.70;;;;;;6027597;23;20026;-81
2022/08/14 07:17:31;;;;;;;5.05;4.57;;;29.70;90.80;;;;;;6002268;23;20601;-81
2022/08/14 07:21:04;;;;;;;5.13;4.45;;;29.80;90.50;;;;;;5998440;23;20023;-80
2022/08/14 07:23:53;;;;;;;6.25;4.65;;;29.70;90.70;;;;;;6015370;23;20030;-80
2022/08/14 07:38:34;;;;;;;4.68;3.95;;;30.40;90.80;;;;;;6088885;23;20026;-78
2022/08/14 07:42:34;;;;;;;;;;;;;;;;;;;;;
2022/08/14 07:45:55;;;;;;;8.25;4.40;;;30.70;90.40;;;;;;5897633;24;20028;-79
2022/08/14 07:48:23;;;;;;;5.77;4.03;;;30.50;90.40;;;;;;5866406;23;20021;-78
2022/08/14 07:50:49;;;;;;;5.57;4.47;;;30.30;90.00;;;;;;6039488;23;20156;-80
2022/08/14 07:53:16;;;;;;;5.65;4.10;;;30.20;90.10;;;;;;6069730;23;20093;-80
2022/08/14 07:55:42;;;;;;;4.18;3.88;;;30.20;90.30;;;;;;6071301;23;20018;-81
2022/08/14 07:58:09;;;;;;;9.32;3.75;;;30.30;90.30;;;;;;6070014;23;20019;-81
2022/08/14 08:00:35;;;;;;;9.73;4.20;;;30.10;90.00;;;;;;6064197;23;20491;-81
2022/08/14 08:03:01;;;;;;;4.88;4.40;;;29.90;90.10;;;;;;6089902;23;20060;-79
2022/08/14 08:05:27;;;;;;;6.75;3.90;;;30.00;91.00;;;;;;6064001;23;20316;-79
2022/08/14 08:11:37;;;;;;;4.80;3.92;;;30.40;90.30;;;;;;6090308;23;20304;-81
2022/08/14 08:14:58;;;;;;;4.68;4.05;;;30.50;89.80;;;;;;6084465;23;20101;-82
2022/08/14 08:33:42;;;;;;;;;;;;;;;;;;;;;
2022/08/14 08:44:34;;;;;;;5.00;3.58;;;29.90;89.10;;;;;;5971578;24;20039;-81
2022/08/14 08:52:40;;;;;;;5.88;3.53;;;30.00;90.10;;;;;;5971203;23;20027;-82
2022/08/14 08:55:22;;;;;;;5.03;3.53;;;29.80;90.20;;;;;;5968793;23;20035;-80
2022/08/14 08:58:05;;;;;;;4.45;3.58;;;29.90;90.20;;;;;;5953562;24;20043;-80
2022/08/14 09:01:25;;;;;;;5.93;3.80;;;29.80;90.20;;;;;;5927298;24;20095;-80
2022/08/14 09:08:11;;;;;;;7.30;3.42;;;30.30;90.50;;;;;;5917106;24;20024;-80
2022/08/14 09:10:55;;;;;;;;;;;30.50;90.00;;;;;;5928138;24;20103;-82
2022/08/14 09:13:24;;;;;;;6.43;3.80;;;30.20;88.90;;;;;;5955783;24;19985;-80
2022/08/14 09:15:52;;;;;;;5.82;3.50;;;30.30;89.90;;;;;;5956213;24;20028;-82
2022/08/14 09:18:18;;;;;;;5.13;4.18;;;30.20;89.20;;;;;;6005528;23;20010;-81
2022/08/14 09:20:46;;;;;;;5.05;3.97;;;30.10;89.60;;;;;;6038045;23;20010;-80
2022/08/14 09:23:13;;;;;;;4.72;3.08;;;30.10;90.30;;;;;;6016983;23;20015;-78
2022/08/14 09:25:41;;;;;;;3.40;3.13;;;30.20;90.20;;;;;;6038359;23;20018;-80
2022/08/14 09:28:07;;;;;;;4.85;3.25;;;30.40;90.60;;;;;;6037755;23;20046;-81
2022/08/14 09:30:36;;;;;;;5.60;4.13;;;30.70;89.50;;;;;;6033818;23;20349;-82
2022/08/14 09:33:39;;;;;;;3.80;3.38;;;30.60;88.50;;;;;;6037252;23;20336;-80
2022/08/14 09:36:25;;;;;;;4.25;3.42;;;30.40;88.40;;;;;;6012136;23;20023;-83
2022/08/14 09:39:00;;;;;;;6.38;3.63;;;30.30;89.10;;;;;;6014504;23;20034;-81
2022/08/14 09:41:52;;;;;;;4.15;3.65;;;30.20;89.10;;;;;;6019237;23;20046;-81
2022/08/14 09:44:29;;;;;;;3.80;3.50;;;30.20;88.80;;;;;;6063246;23;20046;-83
2022/08/14 09:46:55;;;;;;;6.20;3.10;;;30.30;88.50;;;;;;6039659;23;20022;-84
2022/08/14 09:49:35;;;;;;;4.07;3.78;;;30.10;88.10;;;;;;5987701;23;20066;-81
2022/08/14 09:52:10;;;;;;;5.47;3.70;;;30.10;88.90;;;;;;6031232;23;20019;-82
2022/08/14 09:54:45;;;;;;;5.80;3.60;;;30.20;88.80;;;;;;6033568;23;20014;-83
2022/08/14 09:57:27;;;;;;;6.65;3.10;;;30.40;88.40;;;;;;6088909;23;20034;-81
2022/08/14 09:59:53;;;;;;;4.88;2.88;;;30.30;89.20;;;;;;6091736;23;20030;-82
2022/08/14 10:02:20;;;;;;;6.03;2.88;;;30.60;89.10;;;;;;6094272;23;20041;-82
2022/08/14 10:04:57;;;;;;;5.03;3.58;;;30.50;87.30;;;;;;6094487;23;20562;-81
2022/08/14 10:07:32;;;;;;;3.47;3.20;;;30.90;86.90;;;;;;6093519;23;20029;-83
2022/08/14 10:09:59;;;;;;;8.10;3.50;;;30.90;87.50;;;;;;6065038;23;20018;-77
2022/08/14 10:12:38;;;;;;;4.30;3.53;;;30.90;87.70;;;;;;6092780;23;20018;-81
2022/08/14 10:15:15;;;;;;;5.88;3.25;;;30.90;87.20;;;;;;6087769;23;20094;-80
2022/08/14 10:17:41;;;;;;;7.18;3.55;;;31.10;88.20;;;;;;6089824;23;20022;-80
2022/08/14 10:20:07;;;;;;;3.65;3.35;;;30.80;85.60;;;;;;6085462;23;20301;-78
2022/08/14 10:22:33;;;;;;;3.80;3.47;;;30.90;87.10;;;;;;6089654;23;20029;-80
2022/08/14 10:25:16;;;;;;;4.47;3.28;;;31.20;87.50;;;;;;6066177;23;20022;-80
2022/08/14 10:27:45;;;;;;;3.50;3.20;;;31.30;85.70;;;;;;6091087;23;20459;-80
2022/08/14 10:30:16;;;;;;;4.93;2.90;;;31.10;85.20;;;;;;6092098;23;20081;-79
2022/08/14 10:32:46;;;;;;;3.08;2.88;;;30.90;85.30;;;;;;6068396;23;20007;-77
2022/08/14 10:35:13;;;;;;;5.03;3.53;;;31.00;86.40;;;;;;6089167;23;20107;-79
2022/08/14 10:41:41;;;;;;;7.15;3.28;;;30.90;86.70;;;;;;5953977;23;20033;-81
2022/08/14 10:44:20;;;;;;;5.57;3.92;;;30.90;86.50;;;;;;6090865;23;20021;-78
2022/08/14 10:46:53;;;;;;;8.02;2.90;;;30.60;85.00;;;;;;6073162;23;20022;-81
2022/08/14 10:49:25;;;;;;;4.35;2.97;;;30.60;86.30;;;;;;6069082;23;20025;-79
2022/08/14 10:52:43;;;;;;;4.68;3.00;;;30.60;86.90;;;;;;6092807;23;20132;-80
2022/08/14 10:55:38;;;;;;;3.22;3.03;;;30.60;86.70;;;;;;6092969;23;20025;-78
2022/08/14 10:58:09;;;;;;;6.68;3.17;;;30.50;85.30;;;;;;6067469;23;20523;-79
2022/08/14 11:00:35;;;;;;;2.90;2.70;;;30.40;85.50;;;;;;6071777;23;20053;-80
2022/08/14 11:03:16;;;;;;;4.43;3.72;;;30.40;86.60;;;;;;6042352;23;20859;-80
2022/08/14 11:05:47;;;;;;;5.10;3.90;;;30.40;86.00;;;;;;6068696;23;20512;-76
2022/08/14 11:08:14;;;;;;;5.30;2.60;;;30.40;86.80;;;;;;6070261;23;20102;-79
2022/08/14 11:10:55;;;;;;;3.60;3.30;;;30.50;87.20;;;;;;6093615;23;20024;-77
2022/08/14 11:13:25;;;;;;;4.38;3.20;;;30.50;87.40;;;;;;6044472;23;20019;-78
2022/08/14 11:15:51;;;;;;;8.45;3.20;;;30.50;86.20;;;;;;6092369;23;20022;-80
2022/08/14 11:18:18;;;;;;;4.35;3.80;;;30.60;87.30;;;;;;6066898;23;20506;-78
2022/08/14 11:20:49;;;;;;;4.95;3.17;;;30.80;86.00;;;;;;6067098;23;20075;-79
2022/08/14 11:23:18;;;;;;;8.32;3.65;;;31.00;85.10;;;;;;6046419;23;20018;-81
2022/08/14 11:25:46;;;;;;;4.00;3.55;;;31.10;84.90;;;;;;6065736;23;20516;-82
2022/08/14 11:28:13;;;;;;;3.65;3.45;;;31.10;84.70;;;;;;6044402;23;20046;-79
2022/08/14 11:30:43;;;;;;;3.50;3.17;;;31.10;86.80;;;;;;6071883;23;20392;-77
2022/08/14 11:33:09;;;;;;;2.60;2.40;;;31.20;85.70;;;;;;6051756;23;20516;-81
2022/08/14 11:35:36;;;;;;;3.20;2.65;;;31.40;83.70;;;;;;6098515;23;20041;-79
2022/08/14 11:38:04;;;;;;;3.95;3.13;;;31.50;83.40;;;;;;6051769;23;20018;-80
2022/08/14 11:40:33;;;;;;;4.07;3.40;;;31.60;83.70;;;;;;6068263;23;20025;-80
2022/08/14 11:43:00;;;;;;;4.10;3.50;;;31.40;82.10;;;;;;6095073;23;20020;-81
2022/08/14 11:45:33;;;;;;;3.03;2.83;;;31.20;82.80;;;;;;6038979;23;20077;-80
2022/08/14 11:48:18;;;;;;;5.72;3.40;;;31.10;83.50;;;;;;6091165;23;20391;-77
2022/08/14 11:50:45;;;;;;;3.70;3.35;;;30.90;83.90;;;;;;6089318;23;20019;-80
2022/08/14 11:53:27;;;;;;;4.00;3.60;;;30.80;83.90;;;;;;6042589;23;20023;-79
2022/08/14 11:56:00;;;;;;;4.47;4.07;;;30.90;84.00;;;;;;6036935;23;20029;-81
2022/08/14 11:58:32;;;;;;;5.22;4.00;;;30.80;84.40;;;;;;6039232;23;20653;-80
2022/08/14 12:01:02;;;;;;;5.63;4.55;;;30.60;84.20;;;;;;6039100;23;20592;-79
2022/08/14 12:03:57;;;;;;;4.32;3.95;;;30.80;85.00;;;;;;6069237;23;20030;-78
2022/08/14 12:06:23;;;;;;;4.13;3.80;;;30.90;84.70;;;;;;6038812;23;20018;-80
2022/08/14 12:08:52;;;;;;;3.63;3.33;;;30.80;83.50;;;;;;6039874;23;20047;-79
2022/08/14 12:11:19;;;;;;;4.63;3.53;;;30.80;84.00;;;;;;6042568;23;20436;-76
2022/08/14 12:13:45;;;;;;;3.70;3.40;;;30.80;84.60;;;;;;6037345;23;20011;-77
2022/08/14 12:16:15;;;;;;;4.32;3.53;;;31.10;84.60;;;;;;6039031;23;20026;-77
2022/08/14 12:18:46;;;;;;;3.13;2.78;;;31.10;84.40;;;;;;6068400;23;20023;-78
2022/08/14 12:21:14;;;;;;;5.63;3.65;;;30.90;82.00;;;;;;6068591;23;20015;-80
2022/08/14 12:23:40;;;;;;;3.25;2.80;;;30.60;82.10;;;;;;6041216;23;20473;-80
2022/08/14 12:26:09;;;;;;;5.65;2.90;;;30.50;83.60;;;;;;6041272;23;20017;-78
2022/08/14 12:28:35;;;;;;;7.28;3.20;;;30.70;84.00;;;;;;6038565;23;20078;-80
2022/08/14 12:31:12;;;;;;;5.57;3.00;;;30.70;83.10;;;;;;6013416;23;20028;-76
2022/08/14 12:33:37;;;;;;;4.93;3.45;;;30.90;83.90;;;;;;6040997;23;20011;-80
2022/08/14 12:36:08;;;;;;;7.93;2.88;;;31.20;83.20;;;;;;6061190;23;20642;-80
2022/08/14 12:38:42;;;;;;;3.28;3.00;;;31.40;83.30;;;;;;6065400;23;20026;-75
2022/08/14 12:41:10;;;;;;;4.18;3.03;;;31.50;81.80;;;;;;6064344;23;20019;-79
2022/08/14 12:43:58;;;;;;;3.72;3.42;;;31.60;82.50;;;;;;6043190;23;20034;-79
2022/08/14 12:46:29;;;;;;;3.95;3.05;;;31.60;81.70;;;;;;6064592;23;20093;-79
2022/08/14 12:48:57;;;;;;;3.20;3.00;;;31.60;82.60;;;;;;6035419;23;20445;-80
2022/08/14 12:51:25;;;;;;;3.33;3.03;;;31.90;82.30;;;;;;6064474;23;20006;-80
2022/08/14 12:53:52;;;;;;;3.25;2.90;;;32.00;82.00;;;;;;6044444;23;20045;-78
2022/08/14 12:56:19;;;;;;;4.35;3.00;;;32.20;80.50;;;;;;6090735;23;20014;-80
2022/08/14 12:58:49;;;;;;;3.10;2.90;;;32.30;80.10;;;;;;6094710;23;20029;-79
2022/08/14 13:01:24;;;;;;;4.50;2.95;;;32.10;79.80;;;;;;6092013;23;20049;-78
2022/08/14 13:04:04;;;;;;;3.13;2.92;;;32.00;81.80;;;;;;6097039;23;20691;-80
2022/08/14 13:06:30;;;;;;;5.25;2.72;;;31.90;80.50;;;;;;6094876;23;20061;-80
2022/08/14 13:08:56;;;;;;;2.95;2.75;;;31.90;79.80;;;;;;6095411;23;20021;-77
2022/08/14 13:11:25;;;;;;;3.08;2.67;;;31.80;80.10;;;;;;6092324;23;20014;-80
2022/08/14 13:13:57;;;;;;;2.75;2.55;;;31.70;80.00;;;;;;6089805;23;20022;-78
2022/08/14 13:16:24;;;;;;;3.30;2.45;;;31.90;80.10;;;;;;6085249;23;20543;-79
2022/08/14 13:18:51;;;;;;;3.33;3.03;;;32.10;79.10;;;;;;6091553;23;20062;-80
2022/08/14 13:21:17;;;;;;;4.70;3.10;;;31.90;78.80;;;;;;6094376;23;20015;-79
2022/08/14 13:23:43;;;;;;;2.88;2.63;;;31.90;78.50;;;;;;6091596;23;20535;-78
2022/08/14 13:26:09;;;;;;;3.40;3.10;;;31.80;78.50;;;;;;6066555;23;20018;-82
2022/08/14 13:28:38;;;;;;;3.95;3.22;;;31.60;78.30;;;;;;6088406;23;20014;-81
2022/08/14 13:31:08;;;;;;;2.83;2.63;;;31.10;78.80;;;;;;6061783;23;20096;-83
2022/08/14 13:33:34;;;;;;;3.15;2.60;;;31.10;79.50;;;;;;6058680;23;20018;-81
2022/08/14 13:36:23;;;;;;;7.00;2.70;;;31.20;80.00;;;;;;6076088;23;20019;-83
2022/08/14 13:38:59;;;;;;;3.25;2.88;;;31.40;79.70;;;;;;6081363;23;20026;-81
2022/08/14 13:41:26;;;;;;;3.83;2.80;;;31.70;80.00;;;;;;6061121;23;20018;-82
2022/08/14 13:43:55;;;;;;;2.72;2.50;;;31.80;79.70;;;;;;6085905;23;20026;-83
2022/08/14 13:46:20;;;;;;;2.47;2.28;;;31.90;78.90;;;;;;6085128;23;20019;-82
2022/08/14 13:48:50;;;;;;;5.38;2.58;;;31.80;77.70;;;;;;6082408;23;20118;-81
2022/08/14 13:51:29;;;;;;;5.05;2.47;;;31.80;77.60;;;;;;6085986;23;20069;-80
2022/08/14 13:54:09;;;;;;;3.63;3.28;;;31.60;78.90;;;;;;6086744;23;20022;-83
2022/08/14 13:56:38;;;;;;;3.00;2.80;;;31.50;77.80;;;;;;6037567;23;20026;-81
2022/08/14 13:59:05;;;;;;;3.55;3.25;;;31.40;77.60;;;;;;6060504;23;20018;-80
2022/08/14 14:01:33;;;;;;;7.55;3.38;;;31.40;77.30;;;;;;6060222;23;20022;-79
2022/08/14 14:04:00;;;;;;;4.20;2.80;;;31.40;79.10;;;;;;6060805;23;20018;-81
2022/08/14 14:06:26;;;;;;;3.20;2.95;;;31.50;78.70;;;;;;6062429;23;20018;-81
2022/08/14 14:08:56;;;;;;;2.85;2.65;;;31.70;78.00;;;;;;6062038;23;20069;-81
2022/08/14 14:11:23;;;;;;;3.35;3.13;;;31.80;78.30;;;;;;6088620;23;20323;-80
2022/08/14 14:13:54;;;;;;;2.63;2.42;;;32.10;78.60;;;;;;6062516;23;20052;-81
2022/08/14 14:16:20;;;;;;;3.35;2.92;;;32.10;77.80;;;;;;6062086;23;20026;-80
2022/08/14 14:18:54;;;;;;;2.97;2.78;;;32.20;77.60;;;;;;6084814;23;20093;-80
2022/08/14 14:21:23;;;;;;;6.22;3.33;;;32.20;77.20;;;;;;6063122;23;20029;-81
2022/08/14 14:23:50;;;;;;;5.85;3.17;;;32.30;77.20;;;;;;6090477;23;20343;-80